Lake Slagle, Ohio
Current Conditions -  °F | °C
As of 12:36 AM on Tuesday 27 Jan 2015 (Local Time) from KCAK Reporting Station
Light Snow Light Snow  
Wind Chill:   Ceiling: 1700
Heat Index: 19°   Visibility: 3mi
Dew Point: 15°   Wind: 9mph
Humidity: 85%   Direction: 290°WNW
Pressure: 29.87"   Gusts: NA
Location:  40.9014°N, 81.4333°W
Report Text: KCAK 270536Z 29008KT 3SM -SN BR OVC017 M07/M09 A2987 RMK AO2 P0000 T10721094 $
Loading
Personal Weather Stations






























Interactive Weather Map New forecast layout! Learn more

10-Day Weather Forecast

Advertisements
Track Severe Weather on mobile